Deronda, Wisconsin
Current Conditions -  °F | °C
As of 4:55 AM on Friday 21 Nov 2014 (Local Time) from KOEO Reporting Station
Clear Clear  
Wind Chill: -9°   Ceiling: Unl
Heat Index:   Visibility: 10mi
Dew Point: -3°   Wind: 5mph
Humidity: 85%   Direction: 160°SSE
Pressure: 30.27"   Gusts: NA
Location:  45.3559°N, 92.3527°W
Report Text: KOEO 211055Z AUTO 16004KT 10SM CLR M17/M19 A3027 RMK AO2 T11721192
Loading
Personal Weather Stations






























Interactive Weather Map New forecast layout! Learn more

10-Day Weather Forecast

Advertisements
Track Severe Weather on mobile